Montrose, Minnesota
Current Conditions -  °F | °C
As of 6:15 AM on Saturday 25 Oct 2014 (Local Time) from KCFE Reporting Station
Clear Clear  
Wind Chill: 47°   Ceiling: Unl
Heat Index: 50°   Visibility: 10mi
Dew Point: 36°   Wind: 8mph
Humidity: 58%   Direction: 270°W
Pressure: 30.01"   Gusts: NA
Location:  45.06°N, 93.91°W
Report Text: KCFE 251115Z AUTO 27007KT 10SM CLR 10/02 A3001 RMK AO2 T00990020
Loading
Personal Weather Stations






























Interactive Weather Map
Tropical Storm Tracking
New forecast layout! Learn more

10-Day Weather Forecast

Advertisements
Track Severe Weather on mobile